sensor_id;sensor_type;location;lat;lon;timestamp;P1;P4;P2;P0;N10;N4;N25;N1;N05;TS
73616;SPS30;61913;52.312;4.858;2023-09-19T00:01:42;3.27;3.03;2.59;1.92;15.42;15.39;15.28;14.67;11.94;0.69
73616;SPS30;61913;52.312;4.858;2023-09-19T00:04:12;3.09;2.88;2.49;1.90;15.23;15.21;15.11;14.57;11.98;0.66
73616;SPS30;61913;52.312;4.858;2023-09-19T00:06:39;3.09;2.86;2.44;1.81;14.55;14.53;14.42;13.84;11.27;0.67
73616;SPS30;61913;52.312;4.858;2023-09-19T00:09:08;3.48;3.20;2.67;1.91;15.34;15.31;15.17;14.46;11.59;0.69
73616;SPS30;61913;52.312;4.858;2023-09-19T00:11:37;3.34;3.07;2.58;1.85;14.84;14.81;14.68;14.00;11.24;0.69
73616;SPS30;61913;52.312;4.858;2023-09-19T00:14:07;3.34;3.07;2.57;1.85;14.87;14.84;14.71;14.04;11.28;0.70
73616;SPS30;61913;52.312;4.858;2023-09-19T00:16:35;3.10;2.87;2.43;1.79;14.38;14.35;14.24;13.65;11.07;0.69
73616;SPS30;61913;52.312;4.858;2023-09-19T00:19:02;3.17;2.92;2.48;1.81;14.55;14.52;14.40;13.79;11.16;0.70
73616;SPS30;61913;52.312;4.858;2023-09-19T00:21:34;3.31;3.05;2.59;1.90;15.26;15.23;15.11;14.48;11.73;0.71
73616;SPS30;61913;52.312;4.858;2023-09-19T00:24:04;3.40;3.13;2.64;1.92;15.43;15.40;15.27;14.60;11.79;0.72
73616;SPS30;61913;52.312;4.858;2023-09-19T00:26:32;3.41;3.13;2.62;1.87;15.04;15.01;14.88;14.18;11.37;0.73
73616;SPS30;61913;52.312;4.858;2023-09-19T00:29:00;3.58;3.27;2.71;1.91;15.32;15.28;15.14;14.38;11.44;0.74
73616;SPS30;61913;52.312;4.858;2023-09-19T00:31:30;3.82;3.47;2.84;1.93;15.49;15.45;15.29;14.42;11.31;0.77
73616;SPS30;61913;52.312;4.858;2023-09-19T00:33:56;3.66;3.32;2.70;1.82;14.63;14.59;14.43;13.59;10.61;0.78
73616;SPS30;61913;52.312;4.858;2023-09-19T00:36:28;4.01;3.64;2.98;2.02;16.28;16.24;16.07;15.16;11.90;0.76
73616;SPS30;61913;52.312;4.858;2023-09-19T00:38:56;4.08;3.71;3.02;2.05;16.48;16.43;16.26;15.33;12.01;0.77
73616;SPS30;61913;52.312;4.858;2023-09-19T00:41:23;3.51;3.19;2.61;1.79;14.39;14.36;14.21;13.43;10.57;0.76
73616;SPS30;61913;52.312;4.858;2023-09-19T00:43:51;3.59;3.28;2.71;1.88;15.14;15.10;14.95;14.18;11.24;0.76
73616;SPS30;61913;52.312;4.858;2023-09-19T00:46:18;3.74;3.42;2.83;1.99;15.97;15.94;15.78;14.99;11.92;0.74
73616;SPS30;61913;52.312;4.858;2023-09-19T00:48:45;3.86;3.52;2.90;2.01;16.17;16.13;15.97;15.13;11.97;0.76
73616;SPS30;61913;52.312;4.858;2023-09-19T00:51:12;4.13;3.77;3.11;2.16;17.37;17.32;17.15;16.26;12.88;0.75
73616;SPS30;61913;52.312;4.858;2023-09-19T00:53:41;4.45;4.03;3.25;2.15;17.35;17.30;17.10;16.05;12.44;0.78
73616;SPS30;61913;52.312;4.858;2023-09-19T00:56:12;4.03;3.65;2.95;1.97;15.84;15.80;15.62;14.68;11.41;0.78
73616;SPS30;61913;52.312;4.858;2023-09-19T00:58:39;3.68;3.34;2.71;1.82;14.67;14.63;14.47;13.62;10.63;0.77
73616;SPS30;61913;52.312;4.858;2023-09-19T01:01:06;4.26;3.86;3.14;2.12;17.05;17.00;16.82;15.84;12.39;0.76
73616;SPS30;61913;52.312;4.858;2023-09-19T01:03:34;4.34;3.92;3.15;2.07;16.67;16.62;16.42;15.39;11.88;0.78
73616;SPS30;61913;52.312;4.858;2023-09-19T01:06:01;4.10;3.69;2.94;1.90;15.28;15.23;15.04;14.03;10.74;0.81
73616;SPS30;61913;52.312;4.858;2023-09-19T01:08:33;4.11;3.71;2.98;1.95;15.71;15.66;15.48;14.49;11.17;0.79
73616;SPS30;61913;52.312;4.858;2023-09-19T01:13:31;3.99;3.61;2.91;1.93;15.56;15.51;15.33;14.39;11.16;0.79
73616;SPS30;61913;52.312;4.858;2023-09-19T01:16:05;4.22;3.82;3.08;2.04;16.41;16.36;16.17;15.18;11.76;0.79
73616;SPS30;61913;52.312;4.858;2023-09-19T01:18:52;3.92;3.54;2.84;1.85;14.90;14.85;14.67;13.73;10.56;0.80
73616;SPS30;61913;52.312;4.858;2023-09-19T01:21:29;5.09;4.56;3.59;2.25;18.17;18.11;17.86;16.57;12.50;0.82
73616;SPS30;61913;52.312;4.858;2023-09-19T01:24:25;4.48;4.01;3.16;1.98;15.94;15.89;15.67;14.52;10.94;0.82
73616;SPS30;61913;52.312;4.858;2023-09-19T01:29:49;4.14;3.74;3.01;1.99;16.01;15.96;15.77;14.79;11.44;0.78
73616;SPS30;61913;52.312;4.858;2023-09-19T01:32:18;4.36;3.92;3.12;2.01;16.19;16.14;15.94;14.87;11.36;0.79
73616;SPS30;61913;52.312;4.858;2023-09-19T01:34:50;4.26;3.82;3.01;1.89;15.24;15.19;14.98;13.90;10.49;0.82
73616;SPS30;61913;52.312;4.858;2023-09-19T01:37:19;4.19;3.76;2.97;1.87;15.06;15.01;14.81;13.74;10.39;0.82
73616;SPS30;61913;52.312;4.858;2023-09-19T01:39:52;4.79;4.28;3.34;2.05;16.58;16.52;16.28;15.03;11.21;0.84
73616;SPS30;61913;52.312;4.858;2023-09-19T01:42:31;4.44;3.98;3.14;1.97;15.87;15.81;15.60;14.46;10.91;0.82
73616;SPS30;61913;52.312;4.858;2023-09-19T01:47:35;4.77;4.27;3.37;2.11;17.05;16.99;16.76;15.54;11.72;0.81
73616;SPS30;61913;52.312;4.858;2023-09-19T01:50:17;4.42;3.99;3.19;2.07;16.70;16.65;16.44;15.37;11.80;0.79
73616;SPS30;61913;52.312;4.858;2023-09-19T01:52:54;4.17;3.77;3.03;2.00;16.10;16.05;15.86;14.87;11.50;0.78
73616;SPS30;61913;52.312;4.858;2023-09-19T01:55:23;4.67;4.24;3.45;2.33;18.71;18.66;18.46;17.39;13.59;0.77
73616;SPS30;61913;52.312;4.858;2023-09-19T02:00:36;4.97;4.47;3.56;2.28;18.36;18.30;18.07;16.83;12.84;0.78
73616;SPS30;61913;52.312;4.858;2023-09-19T02:03:06;4.22;3.80;3.03;1.96;15.76;15.71;15.52;14.48;11.09;0.79
73616;SPS30;61913;52.312;4.858;2023-09-19T02:05:34;5.06;4.54;3.61;2.30;18.53;18.47;18.23;16.97;12.91;0.79
73616;SPS30;61913;52.312;4.858;2023-09-19T02:08:01;4.79;4.31;3.43;2.20;17.74;17.68;17.46;16.28;12.43;0.79
73616;SPS30;61913;52.312;4.858;2023-09-19T02:10:28;5.57;4.99;3.94;2.49;20.04;19.98;19.71;18.30;13.84;0.80
73616;SPS30;61913;52.312;4.858;2023-09-19T02:12:54;5.48;4.90;3.84;2.38;19.18;19.11;18.84;17.41;13.04;0.81
73616;SPS30;61913;52.312;4.858;2023-09-19T02:15:21;5.68;5.07;3.97;2.45;19.76;19.69;19.40;17.93;13.40;0.82
73616;SPS30;61913;52.312;4.858;2023-09-19T02:17:51;5.35;4.77;3.72;2.28;18.40;18.33;18.06;16.66;12.40;0.82
73616;SPS30;61913;52.312;4.858;2023-09-19T02:20:18;5.91;5.25;4.04;2.39;19.32;19.24;18.94;17.32;12.64;0.85
73616;SPS30;61913;52.312;4.858;2023-09-19T02:22:46;6.12;5.41;4.12;2.37;19.13;19.05;18.72;16.99;12.17;0.88
73616;SPS30;61913;52.312;4.858;2023-09-19T02:25:13;5.45;4.85;3.76;2.27;18.35;18.28;18.00;16.55;12.22;0.85
73616;SPS30;61913;52.312;4.858;2023-09-19T02:27:40;5.83;5.19;4.03;2.43;19.60;19.53;19.23;17.67;13.04;0.85
73616;SPS30;61913;52.312;4.858;2023-09-19T02:30:07;5.44;4.83;3.72;2.21;17.82;17.75;17.46;15.98;11.68;0.87
73616;SPS30;61913;52.312;4.858;2023-09-19T02:32:33;6.22;5.50;4.19;2.41;19.52;19.44;19.11;17.36;12.46;0.89
73616;SPS30;61913;52.312;4.858;2023-09-19T02:35:03;5.91;5.22;3.97;2.26;18.27;18.19;17.87;16.19;11.54;0.88
73616;SPS30;61913;52.312;4.858;2023-09-19T02:37:31;5.46;4.85;3.73;2.21;17.88;17.81;17.52;16.03;11.71;0.86
73616;SPS30;61913;52.312;4.858;2023-09-19T02:39:57;5.32;4.71;3.60;2.10;16.95;16.89;16.60;15.12;10.93;0.87
73616;SPS30;61913;52.312;4.858;2023-09-19T02:42:24;5.83;5.14;3.88;2.18;17.65;17.57;17.25;15.57;11.00;0.90
73616;SPS30;61913;52.312;4.858;2023-09-19T02:44:50;6.70;5.89;4.41;2.42;19.59;19.50;19.12;17.15;11.92;0.92
73616;SPS30;61913;52.312;4.858;2023-09-19T02:47:17;5.90;5.19;3.90;2.15;17.39;17.31;16.98;15.25;10.64;0.91
73616;SPS30;61913;52.312;4.858;2023-09-19T02:49:43;5.98;5.26;3.94;2.18;17.61;17.53;17.20;15.45;10.77;0.91
73616;SPS30;61913;52.312;4.858;2023-09-19T02:52:10;6.26;5.52;4.16;2.33;18.88;18.80;18.45;16.65;11.74;0.90
73616;SPS30;61913;52.312;4.858;2023-09-19T02:54:40;6.40;5.64;4.27;2.41;19.51;19.42;19.07;17.24;12.22;0.89
73616;SPS30;61913;52.312;4.858;2023-09-19T02:57:08;5.78;5.13;3.95;2.33;18.82;18.75;18.45;16.86;12.29;0.83
73616;SPS30;61913;52.312;4.858;2023-09-19T02:59:34;6.15;5.47;4.22;2.51;20.25;20.17;19.85;18.18;13.30;0.83
73616;SPS30;61913;52.312;4.858;2023-09-19T03:02:03;5.66;5.04;3.93;2.39;19.28;19.21;18.92;17.42;12.92;0.81
73616;SPS30;61913;52.312;4.858;2023-09-19T03:04:31;5.68;5.06;3.91;2.35;18.95;18.88;18.59;17.05;12.55;0.81
73616;SPS30;61913;52.312;4.858;2023-09-19T03:06:59;6.17;5.47;4.21;2.48;20.07;19.99;19.67;17.98;13.10;0.83
73616;SPS30;61913;52.312;4.858;2023-09-19T03:09:28;5.66;5.02;3.86;2.28;18.39;18.32;18.02;16.47;11.99;0.84
73616;SPS30;61913;52.312;4.858;2023-09-19T03:11:55;6.25;5.51;4.17;2.34;18.97;18.88;18.54;16.74;11.84;0.88
73616;SPS30;61913;52.312;4.858;2023-09-19T03:14:21;5.54;4.92;3.80;2.26;18.23;18.16;17.88;16.37;11.99;0.84
73616;SPS30;61913;52.312;4.858;2023-09-19T03:16:51;5.29;4.72;3.68;2.24;18.11;18.04;17.78;16.38;12.17;0.83
73616;SPS30;61913;52.312;4.858;2023-09-19T03:19:21;5.43;4.84;3.75;2.27;18.30;18.23;17.95;16.50;12.19;0.84
73616;SPS30;61913;52.312;4.858;2023-09-19T03:21:49;5.39;4.79;3.69;2.20;17.76;17.69;17.41;15.95;11.68;0.84
73616;SPS30;61913;52.312;4.858;2023-09-19T03:24:16;5.18;4.61;3.58;2.16;17.40;17.34;17.07;15.69;11.57;0.83
73616;SPS30;61913;52.312;4.858;2023-09-19T03:26:43;5.79;5.16;4.00;2.42;19.50;19.43;19.13;17.58;12.99;0.83
73616;SPS30;61913;52.312;4.858;2023-09-19T03:29:09;5.13;4.58;3.59;2.23;17.97;17.90;17.65;16.32;12.23;0.81
73616;SPS30;61913;52.312;4.858;2023-09-19T03:31:37;5.28;4.71;3.67;2.25;18.13;18.07;17.80;16.41;12.21;0.83
73616;SPS30;61913;52.312;4.858;2023-09-19T03:34:03;5.34;4.76;3.72;2.27;18.33;18.27;18.00;16.59;12.34;0.82
73616;SPS30;61913;52.312;4.858;2023-09-19T03:36:30;5.78;5.15;4.01;2.44;19.69;19.62;19.33;17.80;13.20;0.83
73616;SPS30;61913;52.312;4.858;2023-09-19T03:38:57;4.74;4.25;3.36;2.13;17.15;17.10;16.87;15.68;11.88;0.80
73616;SPS30;61913;52.312;4.858;2023-09-19T03:41:23;4.82;4.34;3.45;2.22;17.89;17.83;17.60;16.41;12.53;0.79
73616;SPS30;61913;52.312;4.858;2023-09-19T03:43:50;5.19;4.64;3.63;2.24;18.07;18.01;17.75;16.40;12.26;0.82
73616;SPS30;61913;52.312;4.858;2023-09-19T03:46:16;4.99;4.47;3.51;2.18;17.58;17.52;17.27;15.98;12.00;0.81
73616;SPS30;61913;52.312;4.858;2023-09-19T03:48:43;4.62;4.13;3.26;2.04;16.47;16.42;16.19;15.02;11.32;0.81
73616;SPS30;61913;52.312;4.858;2023-09-19T03:51:09;4.77;4.26;3.33;2.05;16.51;16.45;16.22;14.97;11.17;0.81
73616;SPS30;61913;52.312;4.858;2023-09-19T03:53:38;5.14;4.58;3.56;2.16;17.45;17.38;17.12;15.76;11.67;0.82
73616;SPS30;61913;52.312;4.858;2023-09-19T03:56:05;5.15;4.59;3.58;2.18;17.60;17.54;17.28;15.92;11.82;0.82
73616;SPS30;61913;52.312;4.858;2023-09-19T03:58:32;5.05;4.51;3.54;2.19;17.63;17.57;17.32;16.00;11.98;0.81
73616;SPS30;61913;52.312;4.858;2023-09-19T04:01:01;4.97;4.47;3.54;2.25;18.11;18.06;17.82;16.57;12.58;0.78
73616;SPS30;61913;52.312;4.858;2023-09-19T04:03:28;4.24;3.82;3.06;2.00;16.09;16.04;15.84;14.82;11.40;0.77
73616;SPS30;61913;52.312;4.858;2023-09-19T04:06:02;4.08;3.67;2.92;1.87;15.09;15.04;14.85;13.84;10.56;0.79
73616;SPS30;61913;52.312;4.858;2023-09-19T04:08:28;4.43;3.97;3.15;1.99;16.06;16.00;15.79;14.68;11.13;0.80
73616;SPS30;61913;52.312;4.858;2023-09-19T04:10:56;4.08;3.66;2.90;1.85;14.92;14.87;14.68;13.66;10.39;0.79
73616;SPS30;61913;52.312;4.858;2023-09-19T04:13:23;3.88;3.49;2.79;1.80;14.48;14.43;14.25;13.30;10.17;0.78
73616;SPS30;61913;52.312;4.858;2023-09-19T04:15:49;3.98;3.58;2.84;1.81;14.62;14.57;14.38;13.39;10.19;0.80
73616;SPS30;61913;52.312;4.858;2023-09-19T04:18:18;3.88;3.47;2.73;1.70;13.73;13.68;13.49;12.49;9.39;0.82
73616;SPS30;61913;52.312;4.858;2023-09-19T04:20:47;3.97;3.56;2.80;1.75;14.15;14.10;13.91;12.89;9.72;0.82
73616;SPS30;61913;52.312;4.858;2023-09-19T04:23:16;3.38;3.02;2.38;1.49;12.04;12.00;11.84;10.98;8.28;0.83
73616;SPS30;61913;52.312;4.858;2023-09-19T04:25:43;3.90;3.50;2.76;1.73;13.96;13.91;13.72;12.73;9.60;0.82
73616;SPS30;61913;52.312;4.858;2023-09-19T04:28:09;3.67;3.29;2.59;1.62;13.10;13.05;12.87;11.94;9.00;0.82
73616;SPS30;61913;52.312;4.858;2023-09-19T04:30:39;4.08;3.65;2.86;1.77;14.30;14.25;14.05;12.99;9.74;0.83
73616;SPS30;61913;52.312;4.858;2023-09-19T04:33:08;4.04;3.62;2.85;1.79;14.43;14.38;14.18;13.15;9.91;0.82
73616;SPS30;61913;52.312;4.858;2023-09-19T04:35:35;3.79;3.40;2.70;1.73;13.95;13.90;13.72;12.78;9.74;0.81
73616;SPS30;61913;52.312;4.858;2023-09-19T04:38:01;4.20;3.78;3.03;1.97;15.85;15.80;15.61;14.59;11.21;0.80
73616;SPS30;61913;52.312;4.858;2023-09-19T04:40:29;3.62;3.27;2.63;1.73;13.92;13.88;13.71;12.85;9.92;0.79
73616;SPS30;61913;52.312;4.858;2023-09-19T04:42:56;3.04;2.75;2.22;1.47;11.86;11.83;11.69;10.97;8.51;0.76
73616;SPS30;61913;52.312;4.858;2023-09-19T04:45:25;3.68;3.33;2.71;1.83;14.70;14.66;14.50;13.66;10.67;0.75
73616;SPS30;61913;52.312;4.858;2023-09-19T04:47:53;3.65;3.31;2.69;1.81;14.59;14.55;14.39;13.55;10.58;0.76
73616;SPS30;61913;52.312;4.858;2023-09-19T04:50:19;3.23;2.93;2.38;1.60;12.89;12.86;12.72;11.98;9.35;0.76
73616;SPS30;61913;52.312;4.858;2023-09-19T04:52:50;3.75;3.39;2.75;1.83;14.77;14.73;14.56;13.69;10.65;0.76
73616;SPS30;61913;52.312;4.858;2023-09-19T04:55:17;3.89;3.52;2.85;1.90;15.32;15.27;15.10;14.20;11.04;0.77
73616;SPS30;61913;52.312;4.858;2023-09-19T04:57:45;4.09;3.69;2.95;1.92;15.46;15.41;15.22;14.23;10.93;0.81
73616;SPS30;61913;52.312;4.858;2023-09-19T05:00:12;3.90;3.51;2.82;1.84;14.86;14.81;14.63;13.70;10.55;0.79
73616;SPS30;61913;52.312;4.858;2023-09-19T05:02:41;4.17;3.76;3.00;1.94;15.63;15.58;15.39;14.37;11.01;0.80
73616;SPS30;61913;52.312;4.858;2023-09-19T05:05:09;3.91;3.53;2.86;1.90;15.30;15.26;15.08;14.17;11.01;0.77
73616;SPS30;61913;52.312;4.858;2023-09-19T05:07:44;3.43;3.11;2.53;1.70;13.72;13.68;13.53;12.74;9.95;0.77
73616;SPS30;61913;52.312;4.858;2023-09-19T05:10:11;3.54;3.21;2.61;1.76;14.18;14.14;13.99;13.18;10.31;0.76
73616;SPS30;61913;52.312;4.858;2023-09-19T05:12:40;4.25;3.83;3.08;2.02;16.29;16.24;16.04;15.03;11.60;0.79
73616;SPS30;61913;52.312;4.858;2023-09-19T05:15:07;3.88;3.52;2.85;1.91;15.40;15.36;15.19;14.29;11.14;0.78
73616;SPS30;61913;52.312;4.858;2023-09-19T05:17:34;4.30;3.89;3.15;2.11;16.96;16.91;16.72;15.72;12.24;0.79
73616;SPS30;61913;52.312;4.858;2023-09-19T05:20:01;4.42;4.00;3.24;2.17;17.44;17.40;17.20;16.17;12.59;0.78
73616;SPS30;61913;52.312;4.858;2023-09-19T05:22:49;4.92;4.43;3.54;2.28;18.38;18.33;18.10;16.89;12.93;0.78
73616;SPS30;61913;52.312;4.858;2023-09-19T05:25:16;7.63;6.85;5.44;3.46;27.93;27.84;27.47;25.57;19.44;0.78
73616;SPS30;61913;52.312;4.858;2023-09-19T05:27:45;11.38;10.22;8.10;5.16;41.59;41.45;40.91;38.07;28.94;0.78
73616;SPS30;61913;52.312;4.858;2023-09-19T05:30:11;5.96;5.39;4.34;2.86;23.02;22.95;22.68;21.27;16.45;0.76
73616;SPS30;61913;52.312;4.858;2023-09-19T05:32:40;4.62;4.16;3.32;2.15;17.29;17.24;17.02;15.89;12.18;0.80
73616;SPS30;61913;52.312;4.858;2023-09-19T05:35:07;5.47;4.91;3.89;2.47;19.88;19.82;19.55;18.18;13.79;0.81
73616;SPS30;61913;52.312;4.858;2023-09-19T05:37:35;5.35;4.79;3.78;2.37;19.14;19.08;18.82;17.45;13.17;0.80
73616;SPS30;61913;52.312;4.858;2023-09-19T05:40:03;5.64;5.07;4.04;2.59;20.88;20.81;20.55;19.15;14.62;0.78
73616;SPS30;61913;52.312;4.858;2023-09-19T05:42:33;4.38;3.94;3.13;2.01;16.22;16.17;15.96;14.88;11.36;0.78
73616;SPS30;61913;52.312;4.858;2023-09-19T05:45:00;4.18;3.78;3.06;2.03;16.37;16.33;16.14;15.16;11.77;0.76
73616;SPS30;61913;52.312;4.858;2023-09-19T05:47:26;4.45;4.01;3.22;2.11;16.99;16.94;16.74;15.67;12.08;0.78
73616;SPS30;61913;52.312;4.858;2023-09-19T05:49:53;5.65;5.08;4.05;2.60;20.92;20.85;20.58;19.19;14.64;0.80
73616;SPS30;61913;52.312;4.858;2023-09-19T05:52:20;4.93;4.44;3.55;2.30;18.56;18.50;18.28;17.08;13.11;0.79
73616;SPS30;61913;52.312;4.858;2023-09-19T05:54:48;4.80;4.34;3.49;2.29;18.46;18.41;18.19;17.05;13.17;0.78
73616;SPS30;61913;52.312;4.858;2023-09-19T05:57:15;4.90;4.43;3.56;2.34;18.87;18.82;18.60;17.43;13.47;0.78
73616;SPS30;61913;52.312;4.858;2023-09-19T05:59:46;4.34;3.95;3.25;2.25;18.08;18.04;17.86;16.91;13.36;0.73
73616;SPS30;61913;52.312;4.858;2023-09-19T06:02:12;4.80;4.40;3.69;2.64;21.18;21.13;20.94;19.96;16.01;0.71
73616;SPS30;61913;52.312;4.858;2023-09-19T06:04:40;7.04;6.59;5.76;4.46;35.77;35.72;35.50;34.34;28.40;0.63
73616;SPS30;61913;52.312;4.858;2023-09-19T06:07:07;4.89;4.73;4.44;3.86;30.86;30.84;30.76;30.32;26.01;0.56
73616;SPS30;61913;52.312;4.858;2023-09-19T06:09:33;13.59;13.49;13.29;12.33;98.47;98.44;98.37;97.90;85.56;0.48
73616;SPS30;61913;52.312;4.858;2023-09-19T06:12:00;5.07;5.02;4.94;4.58;36.59;36.58;36.55;36.37;31.78;0.51
73616;SPS30;61913;52.312;4.858;2023-09-19T06:14:32;4.09;4.01;3.86;3.48;27.78;27.76;27.72;27.47;23.81;0.53
73616;SPS30;61913;52.312;4.858;2023-09-19T06:16:59;4.77;4.64;4.39;3.85;30.82;30.80;30.73;30.34;26.12;0.56
73616;SPS30;61913;52.312;4.858;2023-09-19T06:19:26;4.65;4.41;3.97;3.24;25.96;25.92;25.81;25.18;21.19;0.63
73616;SPS30;61913;52.312;4.858;2023-09-19T06:21:54;5.18;4.81;4.14;3.13;25.09;25.04;24.87;23.95;19.61;0.70
73616;SPS30;61913;52.312;4.858;2023-09-19T06:24:20;4.33;3.99;3.35;2.42;19.45;19.41;19.24;18.38;14.79;0.72
73616;SPS30;61913;52.312;4.858;2023-09-19T06:26:47;4.47;4.09;3.40;2.40;19.27;19.23;19.05;18.11;14.44;0.72
73616;SPS30;61913;52.312;4.858;2023-09-19T06:29:14;5.01;4.59;3.82;2.71;21.76;21.71;21.51;20.46;16.34;0.72
73616;SPS30;61913;52.312;4.858;2023-09-19T06:31:40;5.68;5.23;4.41;3.21;25.75;25.70;25.49;24.37;19.66;0.69
73616;SPS30;61913;52.312;4.858;2023-09-19T06:34:08;4.56;4.23;3.62;2.69;21.62;21.58;21.42;20.57;16.77;0.69
73616;SPS30;61913;52.312;4.858;2023-09-19T06:36:36;5.15;4.71;3.91;2.75;22.07;22.02;21.81;20.72;16.49;0.73
73616;SPS30;61913;52.312;4.858;2023-09-19T06:39:02;4.74;4.31;3.52;2.40;19.27;19.22;19.02;17.95;14.09;0.75
73616;SPS30;61913;52.312;4.858;2023-09-19T06:41:30;4.63;4.20;3.43;2.33;18.72;18.67;18.47;17.42;13.66;0.75
73616;SPS30;61913;52.312;4.858;2023-09-19T06:43:57;5.07;4.62;3.79;2.61;21.02;20.96;20.75;19.63;15.49;0.74
73616;SPS30;61913;52.312;4.858;2023-09-19T06:46:24;4.58;4.17;3.43;2.36;18.99;18.94;18.75;17.74;14.00;0.73
73616;SPS30;61913;52.312;4.858;2023-09-19T06:48:51;4.97;4.53;3.73;2.57;20.70;20.65;20.44;19.35;15.28;0.73
73616;SPS30;61913;52.312;4.858;2023-09-19T06:51:19;5.26;4.76;3.86;2.59;20.81;20.76;20.52;19.31;15.04;0.77
73616;SPS30;61913;52.312;4.858;2023-09-19T06:53:45;5.44;4.90;3.92;2.54;20.50;20.44;20.19;18.86;14.48;0.79
73616;SPS30;61913;52.312;4.858;2023-09-19T06:56:12;5.61;5.04;4.00;2.55;20.57;20.50;20.24;18.84;14.34;0.80
73616;SPS30;61913;52.312;4.858;2023-09-19T06:58:38;6.13;5.51;4.39;2.82;22.75;22.68;22.39;20.87;15.95;0.78
73616;SPS30;61913;52.312;4.858;2023-09-19T07:01:05;5.89;5.29;4.19;2.67;21.49;21.42;21.14;19.67;14.94;0.79
73616;SPS30;61913;52.312;4.858;2023-09-19T07:03:32;6.23;5.58;4.39;2.74;22.12;22.04;21.74;20.14;15.16;0.81
73616;SPS30;61913;52.312;4.858;2023-09-19T07:06:00;6.03;5.41;4.29;2.73;22.02;21.95;21.66;20.16;15.32;0.79
73616;SPS30;61913;52.312;4.858;2023-09-19T07:08:26;6.99;6.28;4.98;3.18;25.61;25.52;25.19;23.45;17.84;0.79
73616;SPS30;61913;52.312;4.858;2023-09-19T07:10:53;6.57;5.89;4.66;2.95;23.77;23.69;23.38;21.72;16.45;0.80
73616;SPS30;61913;52.312;4.858;2023-09-19T07:13:20;6.79;6.07;4.76;2.94;23.70;23.61;23.28;21.51;16.09;0.82
73616;SPS30;61913;52.312;4.858;2023-09-19T07:15:47;7.66;6.90;5.52;3.58;28.81;28.72;28.37;26.50;20.33;0.79
73616;SPS30;61913;52.312;4.858;2023-09-19T07:18:14;5.43;4.94;4.06;2.80;22.50;22.44;22.22;21.02;16.59;0.75
73616;SPS30;61913;52.312;4.858;2023-09-19T07:20:46;5.94;5.36;4.30;2.81;22.60;22.53;22.26;20.83;16.04;0.79
73616;SPS30;61913;52.312;4.858;2023-09-19T07:23:17;7.33;6.54;5.08;3.09;24.91;24.82;24.44;22.50;16.67;0.84
73616;SPS30;61913;52.312;4.858;2023-09-19T07:25:44;7.37;6.57;5.13;3.14;25.32;25.22;24.85;22.92;17.05;0.83
73616;SPS30;61913;52.312;4.858;2023-09-19T07:28:12;6.71;6.01;4.72;2.95;23.79;23.71;23.38;21.66;16.30;0.81
73616;SPS30;61913;52.312;4.858;2023-09-19T07:30:39;6.48;5.78;4.50;2.74;22.10;22.01;21.69;19.97;14.82;0.82
73616;SPS30;61913;52.312;4.858;2023-09-19T07:33:07;6.95;6.19;4.80;2.89;23.32;23.23;22.88;21.02;15.50;0.83
73616;SPS30;61913;52.312;4.858;2023-09-19T07:35:38;7.03;6.25;4.83;2.88;23.28;23.19;22.83;20.93;15.36;0.83
73616;SPS30;61913;52.312;4.858;2023-09-19T07:38:07;7.44;6.61;5.08;3.00;24.25;24.15;23.76;21.72;15.84;0.85
73616;SPS30;61913;52.312;4.858;2023-09-19T07:40:34;7.23;6.38;4.85;2.77;22.38;22.28;21.89;19.84;14.16;0.87
73616;SPS30;61913;52.312;4.858;2023-09-19T07:43:02;8.37;7.46;5.80;3.53;28.46;28.36;27.93;25.71;19.06;0.82
73616;SPS30;61913;52.312;4.858;2023-09-19T07:45:33;6.47;5.82;4.64;2.99;24.11;24.03;23.73;22.14;16.94;0.80
73616;SPS30;61913;52.312;4.858;2023-09-19T07:48:00;6.09;5.47;4.36;2.80;22.58;22.51;22.23;20.72;15.83;0.80
73616;SPS30;61913;52.312;4.858;2023-09-19T07:50:33;7.98;7.13;5.59;3.46;27.91;27.81;27.42;25.35;18.98;0.83
73616;SPS30;61913;52.312;4.858;2023-09-19T07:53:03;7.19;6.43;5.06;3.16;25.52;25.44;25.08;23.24;17.50;0.82
73616;SPS30;61913;52.312;4.858;2023-09-19T07:55:31;6.49;5.82;4.62;2.93;23.66;23.58;23.27;21.65;16.45;0.80
73616;SPS30;61913;52.312;4.858;2023-09-19T07:58:01;7.62;6.85;5.44;3.47;27.99;27.90;27.54;25.64;19.52;0.80
73616;SPS30;61913;52.312;4.858;2023-09-19T08:00:30;6.07;5.46;4.34;2.77;22.36;22.29;22.00;20.49;15.62;0.80
73616;SPS30;61913;52.312;4.858;2023-09-19T08:02:59;7.03;6.36;5.16;3.44;27.72;27.64;27.33;25.70;20.00;0.77
73616;SPS30;61913;52.312;4.858;2023-09-19T08:05:34;6.45;5.82;4.66;3.03;24.43;24.36;24.06;22.50;17.29;0.79
73616;SPS30;61913;52.312;4.858;2023-09-19T08:08:00;7.19;6.44;5.07;3.16;25.51;25.43;25.07;23.23;17.48;0.81
73616;SPS30;61913;52.312;4.858;2023-09-19T08:10:27;8.24;7.38;5.81;3.64;29.35;29.25;28.85;26.74;20.15;0.81
73616;SPS30;61913;52.312;4.858;2023-09-19T08:12:59;7.70;6.91;5.47;3.47;27.98;27.89;27.52;25.58;19.41;0.80
73616;SPS30;61913;52.312;4.858;2023-09-19T08:15:26;7.25;6.53;5.23;3.40;27.41;27.33;26.99;25.23;19.39;0.78
73616;SPS30;61913;52.312;4.858;2023-09-19T08:17:53;6.15;5.55;4.46;2.93;23.61;23.54;23.25;21.78;16.82;0.78
73616;SPS30;61913;52.312;4.858;2023-09-19T08:20:21;6.16;5.58;4.54;3.06;24.60;24.53;24.26;22.85;17.85;0.77
73616;SPS30;61913;52.312;4.858;2023-09-19T08:22:53;5.89;5.38;4.43;3.08;24.75;24.68;24.44;23.16;18.34;0.73
73616;SPS30;61913;52.312;4.858;2023-09-19T08:25:23;5.85;5.29;4.29;2.87;23.12;23.05;22.79;21.44;16.70;0.76
73616;SPS30;61913;52.312;4.858;2023-09-19T08:27:51;6.85;6.20;5.02;3.36;27.03;26.95;26.65;25.06;19.51;0.76
73616;SPS30;61913;52.312;4.858;2023-09-19T08:30:20;7.21;6.50;5.19;3.37;27.13;27.04;26.71;24.95;19.14;0.78
73616;SPS30;61913;52.312;4.858;2023-09-19T08:32:59;6.83;6.15;4.91;3.17;25.53;25.45;25.14;23.46;17.97;0.78
73616;SPS30;61913;52.312;4.858;2023-09-19T08:35:26;7.33;6.57;5.18;3.25;26.18;26.09;25.74;23.87;18.01;0.79
73616;SPS30;61913;52.312;4.858;2023-09-19T08:37:53;8.00;7.17;5.67;3.58;28.84;28.75;28.36;26.34;19.94;0.78
73616;SPS30;61913;52.312;4.858;2023-09-19T08:40:21;7.50;6.73;5.32;3.37;27.14;27.05;26.69;24.79;18.78;0.79
73616;SPS30;61913;52.312;4.858;2023-09-19T08:42:50;6.69;6.01;4.77;3.04;24.51;24.44;24.12;22.45;17.08;0.80
73616;SPS30;61913;52.312;4.858;2023-09-19T08:45:17;7.58;6.84;5.48;3.57;28.73;28.64;28.29;26.46;20.34;0.78
73616;SPS30;61913;52.312;4.858;2023-09-19T08:47:50;7.98;7.24;5.89;3.97;31.95;31.87;31.52;29.69;23.21;0.74
73616;SPS30;61913;52.312;4.858;2023-09-19T08:52:50;6.65;6.02;4.87;3.25;26.16;26.09;25.79;24.24;18.85;0.77
73616;SPS30;61913;52.312;4.858;2023-09-19T08:55:20;7.26;6.59;5.37;3.63;29.19;29.11;28.80;27.14;21.24;0.76
73616;SPS30;61913;52.312;4.858;2023-09-19T08:57:55;6.44;5.87;4.84;3.36;26.99;26.92;26.66;25.25;19.98;0.73
73616;SPS30;61913;52.312;4.858;2023-09-19T09:00:26;6.26;5.70;4.68;3.21;25.85;25.78;25.52;24.13;19.02;0.74
73616;SPS30;61913;52.312;4.858;2023-09-19T09:02:57;6.54;5.90;4.73;3.09;24.92;24.85;24.55;22.97;17.70;0.79
73616;SPS30;61913;52.312;4.858;2023-09-19T09:05:25;7.21;6.48;5.16;3.31;26.65;26.57;26.22;24.44;18.65;0.80
73616;SPS30;61913;52.312;4.858;2023-09-19T09:07:53;7.15;6.47;5.26;3.52;28.36;28.28;27.97;26.32;20.52;0.76
73616;SPS30;61913;52.312;4.858;2023-09-19T09:10:22;6.55;5.94;4.82;3.23;26.03;25.96;25.67;24.16;18.85;0.77
73616;SPS30;61913;52.312;4.858;2023-09-19T09:12:50;6.50;5.89;4.77;3.19;25.68;25.61;25.32;23.81;18.54;0.79
73616;SPS30;61913;52.312;4.858;2023-09-19T09:15:21;6.34;5.74;4.64;3.09;24.86;24.79;24.51;23.03;17.89;0.78
73616;SPS30;61913;52.312;4.858;2023-09-19T09:17:52;6.23;5.66;4.63;3.16;25.41;25.34;25.07;23.67;18.60;0.75
73616;SPS30;61913;52.312;4.858;2023-09-19T09:20:23;6.28;5.72;4.71;3.24;26.09;26.03;25.76;24.38;19.25;0.74
73616;SPS30;61913;52.312;4.858;2023-09-19T09:22:53;6.90;6.24;5.04;3.34;26.91;26.83;26.52;24.90;19.31;0.77
73616;SPS30;61913;52.312;4.858;2023-09-19T09:25:21;6.38;5.77;4.68;3.13;25.16;25.09;24.81;23.33;18.16;0.75
73616;SPS30;61913;52.312;4.858;2023-09-19T09:28:00;6.44;5.85;4.77;3.22;25.95;25.88;25.60;24.13;18.89;0.75
73616;SPS30;61913;52.312;4.858;2023-09-19T09:30:35;5.67;5.16;4.23;2.89;23.27;23.21;22.97;21.71;17.09;0.75